createdAt,value
2022-11-02T00:03:19.679Z,11.10
2022-11-02T00:08:21.508Z,10.00
2022-11-02T00:18:25.354Z,10.10
2022-11-02T00:28:29.834Z,9.80
2022-11-02T00:33:31.633Z,9.80
2022-11-02T00:38:33.358Z,9.80
2022-11-02T00:48:37.072Z,11.60
2022-11-02T00:58:40.801Z,9.70
2022-11-02T01:03:42.462Z,9.70
2022-11-02T01:08:44.111Z,9.50
2022-11-02T01:13:52.319Z,9.40
2022-11-02T01:18:55.240Z,9.50
2022-11-02T01:28:59.132Z,9.30
2022-11-02T01:34:00.792Z,9.40
2022-11-02T01:39:02.641Z,9.20
2022-11-02T01:44:04.868Z,9.10
2022-11-02T01:49:10.625Z,9.00
2022-11-02T01:54:18.946Z,9.10
2022-11-02T01:59:43.662Z,9.10
2022-11-02T02:04:49.847Z,9.10
2022-11-02T02:09:52.709Z,9.10
2022-11-02T02:14:54.622Z,9.20
2022-11-02T02:25:22.764Z,9.10
2022-11-02T02:30:24.529Z,9.10
2022-11-02T02:35:33.539Z,9.10
2022-11-02T02:40:39.378Z,8.90
2022-11-02T02:46:03.539Z,12.30
2022-11-02T02:51:15.056Z,8.80
2022-11-02T02:56:19.229Z,8.70
2022-11-02T03:01:21.275Z,8.70
2022-11-02T03:06:26.764Z,8.60
2022-11-02T03:11:29.053Z,8.80
2022-11-02T03:22:30.078Z,8.90
2022-11-02T03:27:46.862Z,10.80
2022-11-02T03:33:04.976Z,8.80
2022-11-02T03:38:23.957Z,8.80
2022-11-02T03:43:26.738Z,8.80
2022-11-02T03:48:42.516Z,9.00
2022-11-02T03:54:17.896Z,8.70
2022-11-02T03:59:19.598Z,8.80
2022-11-02T04:04:21.310Z,8.90
2022-11-02T04:09:23.062Z,10.40
2022-11-02T04:19:45.503Z,9.00
2022-11-02T04:25:09.091Z,9.00
2022-11-02T04:30:11.281Z,11.00
2022-11-02T04:35:13.043Z,9.10
2022-11-02T04:40:14.821Z,9.10
2022-11-02T04:55:20.689Z,9.00
2022-11-02T05:10:27.050Z,9.00
2022-11-02T05:15:29.192Z,8.90
2022-11-02T05:20:30.907Z,9.50
2022-11-02T05:25:33.523Z,11.10
2022-11-02T05:30:35.203Z,10.40
2022-11-02T05:35:36.864Z,9.00
2022-11-02T05:40:40.563Z,11.80
2022-11-02T05:45:42.244Z,9.10
2022-11-02T05:50:43.938Z,9.00
2022-11-02T05:55:45.688Z,9.40
2022-11-02T06:00:47.453Z,8.90
2022-11-02T06:05:56.583Z,8.80
2022-11-02T06:10:58.245Z,9.20
2022-11-02T06:16:01.306Z,9.30
2022-11-02T06:26:11.255Z,9.60
2022-11-02T06:31:13.758Z,9.70
2022-11-02T06:36:15.518Z,11.30
2022-11-02T06:46:19.592Z,9.80
2022-11-02T06:51:21.248Z,9.70
2022-11-02T06:56:23.001Z,9.70
2022-11-02T07:01:24.797Z,10.30
2022-11-02T07:06:26.565Z,10.20
2022-11-02T07:11:28.282Z,10.40
2022-11-02T07:16:29.932Z,10.30
2022-11-02T07:21:31.677Z,10.30
2022-11-02T07:26:33.404Z,10.30
2022-11-02T07:36:37.156Z,10.60
2022-11-02T07:41:38.844Z,10.70
2022-11-02T07:46:40.493Z,11.00
2022-11-02T07:51:42.250Z,10.90
2022-11-02T07:56:47.026Z,10.90
2022-11-02T08:01:48.779Z,10.80
2022-11-02T08:06:50.641Z,10.90
2022-11-02T08:11:52.320Z,11.20
2022-11-02T08:16:54.758Z,11.50
2022-11-02T08:32:00.750Z,11.80
2022-11-02T08:37:02.442Z,11.90
2022-11-02T08:42:04.340Z,13.00
2022-11-02T08:47:09.316Z,12.40
2022-11-02T08:52:11.440Z,12.40
2022-11-02T08:57:13.449Z,12.30
2022-11-02T09:02:15.229Z,12.80
2022-11-02T09:07:28.464Z,13.20
2022-11-02T09:12:30.202Z,13.20
2022-11-02T09:17:31.889Z,13.50
2022-11-02T09:22:33.622Z,13.70
2022-11-02T09:27:35.362Z,13.80
2022-11-02T09:37:49.913Z,13.60
2022-11-02T09:43:21.248Z,13.80
2022-11-02T09:48:44.786Z,13.70
2022-11-02T09:54:24.241Z,13.70
2022-11-02T09:59:27.377Z,13.80
2022-11-02T10:04:56.634Z,14.00
2022-11-02T10:10:05.106Z,14.00
2022-11-02T10:15:18.643Z,15.10
2022-11-02T10:20:25.128Z,13.80
2022-11-02T10:25:26.962Z,13.80
2022-11-02T10:30:28.646Z,13.80
2022-11-02T10:36:04.680Z,13.80
2022-11-02T10:41:44.345Z,13.60
2022-11-02T10:47:08.983Z,13.70
2022-11-02T10:52:15.608Z,14.10
2022-11-02T10:57:23.059Z,15.40
2022-11-02T11:02:24.778Z,16.70
2022-11-02T11:07:27.890Z,13.80
2022-11-02T11:12:37.883Z,14.20
2022-11-02T11:23:27.047Z,15.00
2022-11-02T11:28:33.535Z,16.20
2022-11-02T11:33:50.839Z,16.80
2022-11-02T11:38:55.698Z,16.40
2022-11-02T11:43:57.769Z,15.60
2022-11-02T11:48:59.770Z,15.00
2022-11-02T11:54:28.730Z,15.00
2022-11-02T11:59:42.511Z,15.10
2022-11-02T12:04:44.242Z,15.00
2022-11-02T12:10:01.033Z,16.70
2022-11-02T12:15:35.799Z,17.30
2022-11-02T12:21:21.774Z,16.20
2022-11-02T12:26:59.625Z,16.20
2022-11-02T12:32:29.064Z,15.90
2022-11-02T12:37:50.669Z,15.90
2022-11-02T12:43:07.609Z,16.20
2022-11-02T12:48:14.536Z,16.30
2022-11-02T12:53:36.910Z,17.70
2022-11-02T12:58:40.603Z,18.60
2022-11-02T13:03:58.008Z,19.50
2022-11-02T13:09:15.460Z,22.00
2022-11-02T13:14:20.604Z,26.20
2022-11-02T13:19:46.118Z,30.10
2022-11-02T13:24:56.417Z,26.60
2022-11-02T13:30:02.062Z,29.60
2022-11-02T13:35:14.296Z,29.60
2022-11-02T13:40:24.212Z,30.20
2022-11-02T13:45:43.628Z,31.70
2022-11-02T13:50:58.612Z,33.30
2022-11-02T13:56:07.571Z,27.30
2022-11-02T14:01:11.695Z,27.40
2022-11-02T14:06:15.701Z,27.30
2022-11-02T14:11:17.426Z,26.20
2022-11-02T14:16:50.494Z,25.80
2022-11-02T14:21:55.275Z,29.40
2022-11-02T14:26:57.289Z,31.70
2022-11-02T14:32:05.257Z,30.70
2022-11-02T14:37:51.662Z,29.40
2022-11-02T14:43:27.326Z,25.90
2022-11-02T14:48:31.870Z,23.10
2022-11-02T14:53:36.755Z,20.60
2022-11-02T14:58:48.671Z,20.40
2022-11-02T15:03:50.934Z,19.40
2022-11-02T15:08:58.858Z,18.70
2022-11-02T15:14:00.550Z,17.70
2022-11-02T15:19:52.011Z,17.10
2022-11-02T15:24:55.445Z,16.70
2022-11-02T15:29:58.211Z,15.80
2022-11-02T15:35:00.191Z,15.80
2022-11-02T15:40:04.936Z,15.10
2022-11-02T15:45:41.821Z,15.10
2022-11-02T15:50:52.391Z,14.60
2022-11-02T15:56:17.879Z,14.30
2022-11-02T16:01:22.317Z,13.70
2022-11-02T16:06:31.757Z,13.70
2022-11-02T16:11:33.518Z,13.10
2022-11-02T16:16:49.673Z,13.10
2022-11-02T16:21:52.297Z,12.70
2022-11-02T16:26:55.155Z,12.50
2022-11-02T16:31:57.285Z,12.40
2022-11-02T16:37:06.027Z,12.20
2022-11-02T16:42:22.001Z,12.10
2022-11-02T16:47:42.969Z,12.10
2022-11-02T16:53:02.938Z,11.90
2022-11-02T16:58:08.265Z,11.40
2022-11-02T17:03:15.923Z,11.50
2022-11-02T17:08:33.889Z,11.50
2022-11-02T17:13:38.517Z,11.50
2022-11-02T17:18:40.501Z,11.20
2022-11-02T17:23:44.609Z,11.10
2022-11-02T17:28:48.195Z,10.90
2022-11-02T17:33:50.717Z,12.10
2022-11-02T17:48:57.743Z,10.90
2022-11-02T17:53:59.536Z,10.80
2022-11-02T18:04:03.534Z,10.30
2022-11-02T18:09:11.000Z,10.20
2022-11-02T18:14:16.870Z,10.40
2022-11-02T18:19:18.977Z,10.40
2022-11-02T18:24:20.840Z,10.10
2022-11-02T18:29:22.891Z,10.20
2022-11-02T18:39:26.896Z,10.10
2022-11-02T18:44:28.539Z,9.90
2022-11-02T18:49:30.226Z,10.00
2022-11-02T18:54:32.157Z,10.50
2022-11-02T18:59:36.001Z,9.90
2022-11-02T19:04:38.031Z,9.80
2022-11-02T19:14:44.380Z,9.60
2022-11-02T19:19:48.131Z,12.40
2022-11-02T19:24:50.646Z,9.60
2022-11-02T19:44:59.014Z,9.50
2022-11-02T20:00:05.548Z,9.20
2022-11-02T20:05:08.320Z,9.10
2022-11-02T20:10:10.163Z,9.10
2022-11-02T20:15:12.121Z,9.20
2022-11-02T20:20:13.805Z,9.10
2022-11-02T20:25:15.612Z,9.20
2022-11-02T20:30:19.287Z,8.80
2022-11-02T20:35:25.524Z,8.60
2022-11-02T20:40:29.026Z,8.60
2022-11-02T20:45:30.969Z,8.60
2022-11-02T20:50:33.670Z,8.60
2022-11-02T20:55:35.383Z,8.60
2022-11-02T21:00:37.173Z,9.20
2022-11-02T21:05:38.858Z,8.60
2022-11-02T21:10:40.758Z,8.40
2022-11-02T21:20:44.830Z,8.40
2022-11-02T21:25:46.651Z,8.40
2022-11-02T21:35:52.647Z,8.60
2022-11-02T21:40:58.539Z,8.50
2022-11-02T21:46:01.697Z,8.50
2022-11-02T21:51:06.704Z,8.20
2022-11-02T21:56:21.251Z,8.40
2022-11-02T22:01:48.414Z,8.20
2022-11-02T22:06:50.899Z,8.10
2022-11-02T22:17:35.469Z,8.10
2022-11-02T22:27:38.978Z,8.20
2022-11-02T22:32:40.777Z,8.20
2022-11-02T22:43:03.490Z,8.20
2022-11-02T22:53:07.876Z,8.20
2022-11-02T22:58:09.889Z,8.20
2022-11-02T23:03:11.552Z,8.20
2022-11-02T23:08:13.687Z,8.30
2022-11-02T23:18:17.446Z,8.20
2022-11-02T23:28:58.547Z,8.20
2022-11-02T23:34:00.247Z,8.10
2022-11-02T23:39:20.280Z,8.20
2022-11-02T23:44:22.001Z,8.30
2022-11-02T23:49:23.634Z,8.30
2022-11-02T23:54:43.741Z,8.30
2022-11-02T23:59:45.374Z,8.20
